sensor_id;sensor_type;location;lat;lon;timestamp;temperature;humidity
64817;DHT22;69411;45.656;11.740;2023-10-13T00:00:38;19.10;80.70
64817;DHT22;69411;45.656;11.740;2023-10-13T00:03:11;19.10;81.20
64817;DHT22;69411;45.656;11.740;2023-10-13T00:05:45;19.30;80.90
64817;DHT22;69411;45.656;11.740;2023-10-13T00:08:12;19.50;80.80
64817;DHT22;69411;45.656;11.740;2023-10-13T00:10:42;19.60;80.20
64817;DHT22;69411;45.656;11.740;2023-10-13T00:13:10;19.70;79.70
64817;DHT22;69411;45.656;11.740;2023-10-13T00:15:46;19.70;79.70
64817;DHT22;69411;45.656;11.740;2023-10-13T00:18:29;19.70;79.70
64817;DHT22;69411;45.656;11.740;2023-10-13T00:21:08;19.60;79.80
64817;DHT22;69411;45.656;11.740;2023-10-13T00:23:41;19.50;79.90
64817;DHT22;69411;45.656;11.740;2023-10-13T00:26:30;19.50;80.00
64817;DHT22;69411;45.656;11.740;2023-10-13T00:29:09;19.50;80.10
64817;DHT22;69411;45.656;11.740;2023-10-13T00:31:41;19.50;80.10
64817;DHT22;69411;45.656;11.740;2023-10-13T00:34:11;19.50;80.20
64817;DHT22;69411;45.656;11.740;2023-10-13T00:36:41;19.50;80.20
64817;DHT22;69411;45.656;11.740;2023-10-13T00:39:27;19.50;80.30
64817;DHT22;69411;45.656;11.740;2023-10-13T00:41:54;19.40;80.40
64817;DHT22;69411;45.656;11.740;2023-10-13T00:44:31;19.50;80.70
64817;DHT22;69411;45.656;11.740;2023-10-13T00:47:09;19.50;80.90
64817;DHT22;69411;45.656;11.740;2023-10-13T00:49:36;19.70;80.60
64817;DHT22;69411;45.656;11.740;2023-10-13T00:52:06;19.70;80.40
64817;DHT22;69411;45.656;11.740;2023-10-13T00:54:37;19.70;80.30
64817;DHT22;69411;45.656;11.740;2023-10-13T00:57:04;19.70;80.30
64817;DHT22;69411;45.656;11.740;2023-10-13T00:59:37;19.80;81.20
64817;DHT22;69411;45.656;11.740;2023-10-13T01:02:04;19.90;80.80
64817;DHT22;69411;45.656;11.740;2023-10-13T01:05:08;19.90;80.30
64817;DHT22;69411;45.656;11.740;2023-10-13T01:07:36;19.90;80.10
64817;DHT22;69411;45.656;11.740;2023-10-13T01:10:10;19.90;80.10
64817;DHT22;69411;45.656;11.740;2023-10-13T01:12:40;19.90;80.20
64817;DHT22;69411;45.656;11.740;2023-10-13T01:15:10;19.80;80.30
64817;DHT22;69411;45.656;11.740;2023-10-13T01:17:40;19.80;80.50
64817;DHT22;69411;45.656;11.740;2023-10-13T01:20:06;19.70;80.60
64817;DHT22;69411;45.656;11.740;2023-10-13T01:22:33;19.70;80.70
64817;DHT22;69411;45.656;11.740;2023-10-13T01:25:01;19.60;81.00
64817;DHT22;69411;45.656;11.740;2023-10-13T01:27:37;19.60;81.00
64817;DHT22;69411;45.656;11.740;2023-10-13T01:30:06;19.60;80.90
64817;DHT22;69411;45.656;11.740;2023-10-13T01:32:35;19.60;81.00
64817;DHT22;69411;45.656;11.740;2023-10-13T01:35:11;19.60;81.10
64817;DHT22;69411;45.656;11.740;2023-10-13T01:37:43;19.60;81.10
64817;DHT22;69411;45.656;11.740;2023-10-13T01:40:11;19.60;81.00
64817;DHT22;69411;45.656;11.740;2023-10-13T01:42:39;19.50;81.10
64817;DHT22;69411;45.656;11.740;2023-10-13T01:45:05;19.60;81.20
64817;DHT22;69411;45.656;11.740;2023-10-13T01:47:35;19.50;81.20
64817;DHT22;69411;45.656;11.740;2023-10-13T01:50:01;19.50;81.20
64817;DHT22;69411;45.656;11.740;2023-10-13T01:52:39;19.50;81.30
64817;DHT22;69411;45.656;11.740;2023-10-13T01:55:13;19.60;81.40
64817;DHT22;69411;45.656;11.740;2023-10-13T01:57:42;19.50;81.30
64817;DHT22;69411;45.656;11.740;2023-10-13T02:00:13;19.50;81.30
64817;DHT22;69411;45.656;11.740;2023-10-13T02:02:47;19.50;81.40
64817;DHT22;69411;45.656;11.740;2023-10-13T02:05:16;19.60;81.40
64817;DHT22;69411;45.656;11.740;2023-10-13T02:07:43;19.60;81.40
64817;DHT22;69411;45.656;11.740;2023-10-13T02:10:13;19.60;81.40
64817;DHT22;69411;45.656;11.740;2023-10-13T02:12:39;19.50;81.40
64817;DHT22;69411;45.656;11.740;2023-10-13T02:15:11;19.60;81.40
64817;DHT22;69411;45.656;11.740;2023-10-13T02:17:39;19.60;81.40
64817;DHT22;69411;45.656;11.740;2023-10-13T02:20:09;19.60;81.50
64817;DHT22;69411;45.656;11.740;2023-10-13T02:22:43;19.60;81.50
64817;DHT22;69411;45.656;11.740;2023-10-13T02:25:19;19.60;81.40
64817;DHT22;69411;45.656;11.740;2023-10-13T02:28:04;19.70;81.30
64817;DHT22;69411;45.656;11.740;2023-10-13T02:30:40;19.70;81.30
64817;DHT22;69411;45.656;11.740;2023-10-13T02:33:14;19.70;81.30
64817;DHT22;69411;45.656;11.740;2023-10-13T02:35:46;19.70;81.30
64817;DHT22;69411;45.656;11.740;2023-10-13T02:38:25;19.60;81.30
64817;DHT22;69411;45.656;11.740;2023-10-13T02:41:19;19.60;81.20
64817;DHT22;69411;45.656;11.740;2023-10-13T02:43:58;19.60;81.20
64817;DHT22;69411;45.656;11.740;2023-10-13T02:46:24;19.60;81.30
64817;DHT22;69411;45.656;11.740;2023-10-13T02:48:54;19.60;81.50
64817;DHT22;69411;45.656;11.740;2023-10-13T02:51:23;19.60;81.40
64817;DHT22;69411;45.656;11.740;2023-10-13T02:54:01;19.60;81.20
64817;DHT22;69411;45.656;11.740;2023-10-13T02:56:42;19.50;81.40
64817;DHT22;69411;45.656;11.740;2023-10-13T02:59:34;19.50;81.40
64817;DHT22;69411;45.656;11.740;2023-10-13T03:02:04;19.50;81.50
64817;DHT22;69411;45.656;11.740;2023-10-13T03:04:52;19.50;81.60
64817;DHT22;69411;45.656;11.740;2023-10-13T03:07:26;19.50;81.80
64817;DHT22;69411;45.656;11.740;2023-10-13T03:09:57;19.50;81.30
64817;DHT22;69411;45.656;11.740;2023-10-13T03:12:36;19.50;81.30
64817;DHT22;69411;45.656;11.740;2023-10-13T03:15:07;19.40;81.40
64817;DHT22;69411;45.656;11.740;2023-10-13T03:17:44;19.40;81.40
64817;DHT22;69411;45.656;11.740;2023-10-13T03:20:14;19.40;81.40
64817;DHT22;69411;45.656;11.740;2023-10-13T03:22:54;19.40;81.50
64817;DHT22;69411;45.656;11.740;2023-10-13T03:25:20;19.40;81.60
64817;DHT22;69411;45.656;11.740;2023-10-13T03:27:59;19.40;81.70
64817;DHT22;69411;45.656;11.740;2023-10-13T03:30:25;19.40;81.90
64817;DHT22;69411;45.656;11.740;2023-10-13T03:33:04;19.40;82.00
64817;DHT22;69411;45.656;11.740;2023-10-13T03:35:38;19.40;81.90
64817;DHT22;69411;45.656;11.740;2023-10-13T03:38:05;19.40;82.00
64817;DHT22;69411;45.656;11.740;2023-10-13T03:40:44;19.40;82.00
64817;DHT22;69411;45.656;11.740;2023-10-13T03:43:30;19.40;81.90
64817;DHT22;69411;45.656;11.740;2023-10-13T03:45:58;19.40;82.00
64817;DHT22;69411;45.656;11.740;2023-10-13T03:48:26;19.40;82.00
64817;DHT22;69411;45.656;11.740;2023-10-13T03:50:58;19.40;82.00
64817;DHT22;69411;45.656;11.740;2023-10-13T03:53:36;19.40;81.90
64817;DHT22;69411;45.656;11.740;2023-10-13T03:56:04;19.50;82.00
64817;DHT22;69411;45.656;11.740;2023-10-13T03:58:55;19.50;81.90
64817;DHT22;69411;45.656;11.740;2023-10-13T04:01:48;19.50;81.80
64817;DHT22;69411;45.656;11.740;2023-10-13T04:04:20;19.60;81.90
64817;DHT22;69411;45.656;11.740;2023-10-13T04:07:01;19.50;81.90
64817;DHT22;69411;45.656;11.740;2023-10-13T04:09:33;19.60;81.90
64817;DHT22;69411;45.656;11.740;2023-10-13T04:12:06;19.50;81.90
64817;DHT22;69411;45.656;11.740;2023-10-13T04:14:43;19.50;81.80
64817;DHT22;69411;45.656;11.740;2023-10-13T04:17:38;19.60;82.00
64817;DHT22;69411;45.656;11.740;2023-10-13T04:20:11;19.70;81.90
64817;DHT22;69411;45.656;11.740;2023-10-13T04:22:39;19.80;81.60
64817;DHT22;69411;45.656;11.740;2023-10-13T04:25:19;19.80;81.50
64817;DHT22;69411;45.656;11.740;2023-10-13T04:28:02;19.70;81.40
64817;DHT22;69411;45.656;11.740;2023-10-13T04:33:33;19.70;81.50
64817;DHT22;69411;45.656;11.740;2023-10-13T04:36:24;19.60;81.40
64817;DHT22;69411;45.656;11.740;2023-10-13T04:38:59;19.50;81.50
64817;DHT22;69411;45.656;11.740;2023-10-13T04:41:37;19.50;81.60
64817;DHT22;69411;45.656;11.740;2023-10-13T04:44:18;19.50;81.70
64817;DHT22;69411;45.656;11.740;2023-10-13T04:47:02;19.50;81.70
64817;DHT22;69411;45.656;11.740;2023-10-13T04:49:31;19.50;81.50
64817;DHT22;69411;45.656;11.740;2023-10-13T04:52:02;19.50;81.70
64817;DHT22;69411;45.656;11.740;2023-10-13T04:54:39;19.40;81.50
64817;DHT22;69411;45.656;11.740;2023-10-13T04:57:18;19.40;81.70
64817;DHT22;69411;45.656;11.740;2023-10-13T05:00:16;19.40;81.80
64817;DHT22;69411;45.656;11.740;2023-10-13T05:02:44;19.30;81.90
64817;DHT22;69411;45.656;11.740;2023-10-13T05:05:29;19.40;82.00
64817;DHT22;69411;45.656;11.740;2023-10-13T05:08:12;19.40;81.80
64817;DHT22;69411;45.656;11.740;2023-10-13T05:11:04;19.30;82.00
64817;DHT22;69411;45.656;11.740;2023-10-13T05:13:59;19.30;81.80
64817;DHT22;69411;45.656;11.740;2023-10-13T05:16:43;19.30;82.00
64817;DHT22;69411;45.656;11.740;2023-10-13T05:19:28;19.30;82.10
64817;DHT22;69411;45.656;11.740;2023-10-13T05:22:13;19.30;82.20
64817;DHT22;69411;45.656;11.740;2023-10-13T05:24:57;19.30;82.10
64817;DHT22;69411;45.656;11.740;2023-10-13T05:27:42;19.30;82.10
64817;DHT22;69411;45.656;11.740;2023-10-13T05:30:26;19.30;82.00
64817;DHT22;69411;45.656;11.740;2023-10-13T05:33:10;19.30;82.20
64817;DHT22;69411;45.656;11.740;2023-10-13T05:35:55;19.30;82.20
64817;DHT22;69411;45.656;11.740;2023-10-13T05:38:39;19.30;82.20
64817;DHT22;69411;45.656;11.740;2023-10-13T05:41:23;19.30;82.20
64817;DHT22;69411;45.656;11.740;2023-10-13T05:44:12;19.30;82.10
64817;DHT22;69411;45.656;11.740;2023-10-13T05:46:56;19.30;82.10
64817;DHT22;69411;45.656;11.740;2023-10-13T05:49:41;19.20;82.50
64817;DHT22;69411;45.656;11.740;2023-10-13T05:52:20;19.30;82.30
64817;DHT22;69411;45.656;11.740;2023-10-13T05:55:05;19.30;82.50
64817;DHT22;69411;45.656;11.740;2023-10-13T05:57:49;19.20;82.50
64817;DHT22;69411;45.656;11.740;2023-10-13T06:00:39;19.20;82.60
64817;DHT22;69411;45.656;11.740;2023-10-13T06:03:23;19.20;82.60
64817;DHT22;69411;45.656;11.740;2023-10-13T06:06:08;19.20;82.50
64817;DHT22;69411;45.656;11.740;2023-10-13T06:08:52;19.20;82.80
64817;DHT22;69411;45.656;11.740;2023-10-13T06:11:37;19.20;82.80
64817;DHT22;69411;45.656;11.740;2023-10-13T06:14:21;19.20;82.80
64817;DHT22;69411;45.656;11.740;2023-10-13T06:17:08;19.30;83.00
64817;DHT22;69411;45.656;11.740;2023-10-13T06:19:52;19.30;83.20
64817;DHT22;69411;45.656;11.740;2023-10-13T06:22:36;19.20;83.00
64817;DHT22;69411;45.656;11.740;2023-10-13T06:25:21;19.20;83.60
64817;DHT22;69411;45.656;11.740;2023-10-13T06:28:05;19.30;83.10
64817;DHT22;69411;45.656;11.740;2023-10-13T06:30:59;19.20;83.20
64817;DHT22;69411;45.656;11.740;2023-10-13T06:33:27;19.20;83.30
64817;DHT22;69411;45.656;11.740;2023-10-13T06:36:03;19.30;83.60
64817;DHT22;69411;45.656;11.740;2023-10-13T06:38:32;19.30;83.80
64817;DHT22;69411;45.656;11.740;2023-10-13T06:41:06;19.30;83.70
64817;DHT22;69411;45.656;11.740;2023-10-13T06:43:36;19.30;83.60
64817;DHT22;69411;45.656;11.740;2023-10-13T06:46:08;19.30;83.80
64817;DHT22;69411;45.656;11.740;2023-10-13T06:48:42;19.30;83.70
64817;DHT22;69411;45.656;11.740;2023-10-13T06:51:09;19.40;83.70
64817;DHT22;69411;45.656;11.740;2023-10-13T06:53:47;19.40;83.70
64817;DHT22;69411;45.656;11.740;2023-10-13T06:56:17;19.40;83.80
64817;DHT22;69411;45.656;11.740;2023-10-13T06:58:57;19.40;83.30
64817;DHT22;69411;45.656;11.740;2023-10-13T07:01:35;19.50;83.50
64817;DHT22;69411;45.656;11.740;2023-10-13T07:04:08;19.50;83.70
64817;DHT22;69411;45.656;11.740;2023-10-13T07:06:42;19.50;83.60
64817;DHT22;69411;45.656;11.740;2023-10-13T07:09:17;19.50;83.80
64817;DHT22;69411;45.656;11.740;2023-10-13T07:12:02;19.50;83.60
64817;DHT22;69411;45.656;11.740;2023-10-13T07:14:48;19.60;83.50
64817;DHT22;69411;45.656;11.740;2023-10-13T07:17:17;19.60;83.30
64817;DHT22;69411;45.656;11.740;2023-10-13T07:19:53;19.60;83.30
64817;DHT22;69411;45.656;11.740;2023-10-13T07:22:22;19.80;83.10
64817;DHT22;69411;45.656;11.740;2023-10-13T07:24:49;19.80;83.00
64817;DHT22;69411;45.656;11.740;2023-10-13T07:27:22;19.90;82.80
64817;DHT22;69411;45.656;11.740;2023-10-13T07:29:55;19.90;82.70
64817;DHT22;69411;45.656;11.740;2023-10-13T07:32:44;19.90;82.50
64817;DHT22;69411;45.656;11.740;2023-10-13T07:35:15;19.90;82.30
64817;DHT22;69411;45.656;11.740;2023-10-13T07:37:46;20.00;82.20
64817;DHT22;69411;45.656;11.740;2023-10-13T07:40:25;20.00;82.20
64817;DHT22;69411;45.656;11.740;2023-10-13T07:42:51;20.00;81.90
64817;DHT22;69411;45.656;11.740;2023-10-13T07:45:18;20.10;81.90
64817;DHT22;69411;45.656;11.740;2023-10-13T07:47:48;20.10;81.90
64817;DHT22;69411;45.656;11.740;2023-10-13T07:50:17;20.20;81.90
64817;DHT22;69411;45.656;11.740;2023-10-13T07:52:51;20.20;81.80
64817;DHT22;69411;45.656;11.740;2023-10-13T07:55:26;20.20;81.80
64817;DHT22;69411;45.656;11.740;2023-10-13T07:57:52;20.30;81.60
64817;DHT22;69411;45.656;11.740;2023-10-13T08:00:25;20.40;81.60
64817;DHT22;69411;45.656;11.740;2023-10-13T08:03:21;20.40;81.60
64817;DHT22;69411;45.656;11.740;2023-10-13T08:06:05;20.40;81.60
64817;DHT22;69411;45.656;11.740;2023-10-13T08:08:33;20.40;81.60
64817;DHT22;69411;45.656;11.740;2023-10-13T08:11:13;20.40;81.40
64817;DHT22;69411;45.656;11.740;2023-10-13T08:14:11;20.50;81.20
64817;DHT22;69411;45.656;11.740;2023-10-13T08:16:39;20.50;81.30
64817;DHT22;69411;45.656;11.740;2023-10-13T08:19:15;20.60;81.30
64817;DHT22;69411;45.656;11.740;2023-10-13T08:21:45;20.60;81.00
64817;DHT22;69411;45.656;11.740;2023-10-13T08:24:18;20.60;81.00
64817;DHT22;69411;45.656;11.740;2023-10-13T08:27:03;20.60;80.90
64817;DHT22;69411;45.656;11.740;2023-10-13T08:29:28;20.70;80.80
64817;DHT22;69411;45.656;11.740;2023-10-13T08:31:55;20.70;80.90
64817;DHT22;69411;45.656;11.740;2023-10-13T08:34:35;20.70;80.70
64817;DHT22;69411;45.656;11.740;2023-10-13T08:37:27;20.70;80.50
64817;DHT22;69411;45.656;11.740;2023-10-13T08:39:56;20.80;80.60
64817;DHT22;69411;45.656;11.740;2023-10-13T08:45:22;20.90;80.60
64817;DHT22;69411;45.656;11.740;2023-10-13T08:47:50;20.90;80.40
64817;DHT22;69411;45.656;11.740;2023-10-13T08:50:51;20.90;80.30
64817;DHT22;69411;45.656;11.740;2023-10-13T08:56:09;21.10;79.90
64817;DHT22;69411;45.656;11.740;2023-10-13T08:58:41;21.10;79.80
64817;DHT22;69411;45.656;11.740;2023-10-13T09:01:24;21.20;79.70
64817;DHT22;69411;45.656;11.740;2023-10-13T09:04:09;21.30;79.50
64817;DHT22;69411;45.656;11.740;2023-10-13T09:06:56;21.30;79.40
64817;DHT22;69411;45.656;11.740;2023-10-13T09:09:32;21.40;79.30
64817;DHT22;69411;45.656;11.740;2023-10-13T09:12:14;21.40;79.10
64817;DHT22;69411;45.656;11.740;2023-10-13T09:14:44;21.50;78.80
64817;DHT22;69411;45.656;11.740;2023-10-13T09:17:23;21.40;78.70
64817;DHT22;69411;45.656;11.740;2023-10-13T09:20:04;21.50;78.60
64817;DHT22;69411;45.656;11.740;2023-10-13T09:22:53;21.50;78.70
64817;DHT22;69411;45.656;11.740;2023-10-13T09:25:36;21.50;78.10
64817;DHT22;69411;45.656;11.740;2023-10-13T09:28:14;21.60;78.10
64817;DHT22;69411;45.656;11.740;2023-10-13T09:30:52;21.60;78.10
64817;DHT22;69411;45.656;11.740;2023-10-13T09:33:23;21.60;78.20
64817;DHT22;69411;45.656;11.740;2023-10-13T09:35:59;21.70;78.10
64817;DHT22;69411;45.656;11.740;2023-10-13T09:38:28;21.70;78.10
64817;DHT22;69411;45.656;11.740;2023-10-13T09:40:55;21.70;77.90
64817;DHT22;69411;45.656;11.740;2023-10-13T09:43:27;21.80;78.00
64817;DHT22;69411;45.656;11.740;2023-10-13T09:46:00;21.80;77.90
64817;DHT22;69411;45.656;11.740;2023-10-13T09:48:47;21.90;77.60
64817;DHT22;69411;45.656;11.740;2023-10-13T09:51:19;21.90;77.30
64817;DHT22;69411;45.656;11.740;2023-10-13T09:54:01;22.00;77.40
64817;DHT22;69411;45.656;11.740;2023-10-13T09:56:40;22.00;77.20
64817;DHT22;69411;45.656;11.740;2023-10-13T09:59:38;22.10;76.90
64817;DHT22;69411;45.656;11.740;2023-10-13T10:02:08;22.00;76.70
64817;DHT22;69411;45.656;11.740;2023-10-13T10:04:36;22.00;76.90
64817;DHT22;69411;45.656;11.740;2023-10-13T10:07:27;22.00;77.00
64817;DHT22;69411;45.656;11.740;2023-10-13T10:09:58;22.10;77.00
64817;DHT22;69411;45.656;11.740;2023-10-13T10:12:52;22.10;77.10
64817;DHT22;69411;45.656;11.740;2023-10-13T10:15:29;22.20;77.10
64817;DHT22;69411;45.656;11.740;2023-10-13T10:18:21;22.30;76.80
64817;DHT22;69411;45.656;11.740;2023-10-13T10:21:05;22.40;76.40
64817;DHT22;69411;45.656;11.740;2023-10-13T10:23:35;22.40;76.50
64817;DHT22;69411;45.656;11.740;2023-10-13T10:26:16;22.50;75.70
64817;DHT22;69411;45.656;11.740;2023-10-13T10:28:50;22.50;75.40
64817;DHT22;69411;45.656;11.740;2023-10-13T10:31:16;22.50;75.30
64817;DHT22;69411;45.656;11.740;2023-10-13T10:33:47;22.50;75.80
64817;DHT22;69411;45.656;11.740;2023-10-13T10:36:17;22.50;75.90
64817;DHT22;69411;45.656;11.740;2023-10-13T10:38:54;22.60;75.90
64817;DHT22;69411;45.656;11.740;2023-10-13T10:41:29;22.70;75.90
64817;DHT22;69411;45.656;11.740;2023-10-13T10:44:19;22.70;75.80
64817;DHT22;69411;45.656;11.740;2023-10-13T10:47:11;22.80;75.50
64817;DHT22;69411;45.656;11.740;2023-10-13T10:49:38;22.90;74.60
64817;DHT22;69411;45.656;11.740;2023-10-13T10:52:09;22.90;74.70
64817;DHT22;69411;45.656;11.740;2023-10-13T10:54:40;22.90;74.60
64817;DHT22;69411;45.656;11.740;2023-10-13T10:57:14;22.90;74.50
64817;DHT22;69411;45.656;11.740;2023-10-13T11:00:01;22.90;74.30
64817;DHT22;69411;45.656;11.740;2023-10-13T11:02:39;22.90;73.90
64817;DHT22;69411;45.656;11.740;2023-10-13T11:05:07;22.90;74.30
64817;DHT22;69411;45.656;11.740;2023-10-13T11:07:35;22.90;74.00
64817;DHT22;69411;45.656;11.740;2023-10-13T11:10:11;22.90;74.10
64817;DHT22;69411;45.656;11.740;2023-10-13T11:12:54;22.90;73.70
64817;DHT22;69411;45.656;11.740;2023-10-13T11:15:21;23.00;73.90
64817;DHT22;69411;45.656;11.740;2023-10-13T11:17:59;23.00;73.90
64817;DHT22;69411;45.656;11.740;2023-10-13T11:20:26;23.00;73.80
64817;DHT22;69411;45.656;11.740;2023-10-13T11:23:18;23.00;73.50
64817;DHT22;69411;45.656;11.740;2023-10-13T11:25:57;23.10;74.00
64817;DHT22;69411;45.656;11.740;2023-10-13T11:28:26;23.10;73.00
64817;DHT22;69411;45.656;11.740;2023-10-13T11:30:58;23.20;72.80
64817;DHT22;69411;45.656;11.740;2023-10-13T11:33:26;23.10;73.00
64817;DHT22;69411;45.656;11.740;2023-10-13T11:35:56;23.20;73.10
64817;DHT22;69411;45.656;11.740;2023-10-13T11:38:34;23.20;72.60
64817;DHT22;69411;45.656;11.740;2023-10-13T11:41:06;23.20;72.30
64817;DHT22;69411;45.656;11.740;2023-10-13T11:43:37;23.20;72.80
64817;DHT22;69411;45.656;11.740;2023-10-13T11:48:44;23.50;72.60
64817;DHT22;69411;45.656;11.740;2023-10-13T11:53:38;23.80;72.20
64817;DHT22;69411;45.656;11.740;2023-10-13T11:56:06;23.90;71.80
64817;DHT22;69411;45.656;11.740;2023-10-13T11:58:39;24.00;71.60
64817;DHT22;69411;45.656;11.740;2023-10-13T12:01:06;24.10;71.30
64817;DHT22;69411;45.656;11.740;2023-10-13T12:03:48;24.20;71.10
64817;DHT22;69411;45.656;11.740;2023-10-13T12:06:35;24.30;70.80
64817;DHT22;69411;45.656;11.740;2023-10-13T12:09:03;24.40;70.30
64817;DHT22;69411;45.656;11.740;2023-10-13T12:11:48;24.40;69.90
64817;DHT22;69411;45.656;11.740;2023-10-13T12:14:17;24.40;69.90
64817;DHT22;69411;45.656;11.740;2023-10-13T12:16:47;24.40;69.40
64817;DHT22;69411;45.656;11.740;2023-10-13T12:19:21;24.40;69.20
64817;DHT22;69411;45.656;11.740;2023-10-13T12:21:54;24.30;69.10
64817;DHT22;69411;45.656;11.740;2023-10-13T12:24:26;24.20;69.30
64817;DHT22;69411;45.656;11.740;2023-10-13T12:27:04;24.10;69.50
64817;DHT22;69411;45.656;11.740;2023-10-13T12:29:52;24.10;69.40
64817;DHT22;69411;45.656;11.740;2023-10-13T12:32:19;24.10;68.50
64817;DHT22;69411;45.656;11.740;2023-10-13T12:34:53;24.00;66.80
64817;DHT22;69411;45.656;11.740;2023-10-13T12:37:29;24.00;67.80
64817;DHT22;69411;45.656;11.740;2023-10-13T12:40:13;23.90;68.40
64817;DHT22;69411;45.656;11.740;2023-10-13T12:43:04;23.90;69.00
64817;DHT22;69411;45.656;11.740;2023-10-13T12:45:51;23.90;69.30
64817;DHT22;69411;45.656;11.740;2023-10-13T12:48:39;23.90;69.60
64817;DHT22;69411;45.656;11.740;2023-10-13T12:51:23;23.90;69.80
64817;DHT22;69411;45.656;11.740;2023-10-13T12:54:09;24.00;69.70
64817;DHT22;69411;45.656;11.740;2023-10-13T12:56:46;24.00;69.60
64817;DHT22;69411;45.656;11.740;2023-10-13T12:59:12;24.00;69.30
64817;DHT22;69411;45.656;11.740;2023-10-13T13:01:43;23.90;69.40
64817;DHT22;69411;45.656;11.740;2023-10-13T13:04:11;23.90;69.20
64817;DHT22;69411;45.656;11.740;2023-10-13T13:06:44;23.80;69.20
64817;DHT22;69411;45.656;11.740;2023-10-13T13:09:12;23.70;69.10
64817;DHT22;69411;45.656;11.740;2023-10-13T13:11:41;23.70;69.50
64817;DHT22;69411;45.656;11.740;2023-10-13T13:14:09;23.70;69.50
64817;DHT22;69411;45.656;11.740;2023-10-13T13:16:35;23.70;69.30
64817;DHT22;69411;45.656;11.740;2023-10-13T13:19:05;23.60;69.40
64817;DHT22;69411;45.656;11.740;2023-10-13T13:21:39;23.70;69.20
64817;DHT22;69411;45.656;11.740;2023-10-13T13:24:07;23.60;69.10
64817;DHT22;69411;45.656;11.740;2023-10-13T13:26:40;23.50;69.00
64817;DHT22;69411;45.656;11.740;2023-10-13T13:29:07;23.50;69.30
64817;DHT22;69411;45.656;11.740;2023-10-13T13:31:48;23.60;69.00
64817;DHT22;69411;45.656;11.740;2023-10-13T13:34:19;23.50;68.80
64817;DHT22;69411;45.656;11.740;2023-10-13T13:36:51;23.60;69.10
64817;DHT22;69411;45.656;11.740;2023-10-13T13:39:20;23.60;69.20
64817;DHT22;69411;45.656;11.740;2023-10-13T13:42:01;23.60;69.30
64817;DHT22;69411;45.656;11.740;2023-10-13T13:44:32;23.70;69.20
64817;DHT22;69411;45.656;11.740;2023-10-13T13:47:02;23.60;68.70
64817;DHT22;69411;45.656;11.740;2023-10-13T13:49:56;23.60;69.00
64817;DHT22;69411;45.656;11.740;2023-10-13T13:52:27;23.70;69.00
64817;DHT22;69411;45.656;11.740;2023-10-13T13:54:59;23.80;69.00
64817;DHT22;69411;45.656;11.740;2023-10-13T13:57:28;23.90;68.70
64817;DHT22;69411;45.656;11.740;2023-10-13T13:59:56;23.90;68.70
64817;DHT22;69411;45.656;11.740;2023-10-13T14:02:23;23.90;68.60
64817;DHT22;69411;45.656;11.740;2023-10-13T14:04:57;23.90;67.90
64817;DHT22;69411;45.656;11.740;2023-10-13T14:07:23;23.90;68.00
64817;DHT22;69411;45.656;11.740;2023-10-13T14:09:50;24.00;68.00
64817;DHT22;69411;45.656;11.740;2023-10-13T14:12:19;24.00;67.70
64817;DHT22;69411;45.656;11.740;2023-10-13T14:14:56;24.00;66.10
64817;DHT22;69411;45.656;11.740;2023-10-13T14:17:24;24.10;66.90
64817;DHT22;69411;45.656;11.740;2023-10-13T14:19:58;24.10;66.90
64817;DHT22;69411;45.656;11.740;2023-10-13T14:22:25;24.20;66.80
64817;DHT22;69411;45.656;11.740;2023-10-13T14:24:51;24.20;66.80
64817;DHT22;69411;45.656;11.740;2023-10-13T14:27:21;24.30;66.90
64817;DHT22;69411;45.656;11.740;2023-10-13T14:29:52;24.40;66.40
64817;DHT22;69411;45.656;11.740;2023-10-13T14:32:22;24.40;65.20
64817;DHT22;69411;45.656;11.740;2023-10-13T14:34:51;24.40;65.00
64817;DHT22;69411;45.656;11.740;2023-10-13T14:37:20;24.40;65.50
64817;DHT22;69411;45.656;11.740;2023-10-13T14:39:53;24.30;64.70
64817;DHT22;69411;45.656;11.740;2023-10-13T14:42:25;24.30;65.60
64817;DHT22;69411;45.656;11.740;2023-10-13T14:44:52;24.20;66.00
64817;DHT22;69411;45.656;11.740;2023-10-13T14:47:29;24.10;65.90
64817;DHT22;69411;45.656;11.740;2023-10-13T14:49:56;24.00;65.90
64817;DHT22;69411;45.656;11.740;2023-10-13T14:52:33;24.00;66.10
64817;DHT22;69411;45.656;11.740;2023-10-13T14:54:59;23.90;66.40
64817;DHT22;69411;45.656;11.740;2023-10-13T14:57:25;23.90;66.60
64817;DHT22;69411;45.656;11.740;2023-10-13T14:59:55;23.90;66.80
64817;DHT22;69411;45.656;11.740;2023-10-13T15:02:21;23.90;66.70
64817;DHT22;69411;45.656;11.740;2023-10-13T15:04:48;23.80;66.60
64817;DHT22;69411;45.656;11.740;2023-10-13T15:07:15;23.80;66.90
64817;DHT22;69411;45.656;11.740;2023-10-13T15:09:46;23.80;67.00
64817;DHT22;69411;45.656;11.740;2023-10-13T15:12:14;23.80;66.90
64817;DHT22;69411;45.656;11.740;2023-10-13T15:14:41;23.80;67.00
64817;DHT22;69411;45.656;11.740;2023-10-13T15:17:10;23.80;67.10
64817;DHT22;69411;45.656;11.740;2023-10-13T15:19:36;23.80;67.30
64817;DHT22;69411;45.656;11.740;2023-10-13T15:22:05;23.80;67.40
64817;DHT22;69411;45.656;11.740;2023-10-13T15:24:38;23.80;67.20
64817;DHT22;69411;45.656;11.740;2023-10-13T15:27:10;23.90;67.20
64817;DHT22;69411;45.656;11.740;2023-10-13T15:29:36;23.80;67.30
64817;DHT22;69411;45.656;11.740;2023-10-13T15:32:04;23.90;67.40
64817;DHT22;69411;45.656;11.740;2023-10-13T15:34:52;23.90;67.10
64817;DHT22;69411;45.656;11.740;2023-10-13T15:37:18;23.90;67.00
64817;DHT22;69411;45.656;11.740;2023-10-13T15:39:46;23.90;66.80
64817;DHT22;69411;45.656;11.740;2023-10-13T15:42:12;23.90;66.90
64817;DHT22;69411;45.656;11.740;2023-10-13T15:44:39;23.90;66.80
64817;DHT22;69411;45.656;11.740;2023-10-13T15:47:11;23.90;66.90
64817;DHT22;69411;45.656;11.740;2023-10-13T15:49:40;23.90;67.00
64817;DHT22;69411;45.656;11.740;2023-10-13T15:52:09;23.90;66.90
64817;DHT22;69411;45.656;11.740;2023-10-13T15:54:39;23.90;66.90
64817;DHT22;69411;45.656;11.740;2023-10-13T15:57:10;23.90;66.90
64817;DHT22;69411;45.656;11.740;2023-10-13T15:59:44;23.90;66.80
64817;DHT22;69411;45.656;11.740;2023-10-13T16:02:11;23.90;67.00
64817;DHT22;69411;45.656;11.740;2023-10-13T16:04:40;23.80;66.90
64817;DHT22;69411;45.656;11.740;2023-10-13T16:07:09;23.80;66.90
64817;DHT22;69411;45.656;11.740;2023-10-13T16:09:37;23.70;67.20
64817;DHT22;69411;45.656;11.740;2023-10-13T16:14:30;23.60;67.60
64817;DHT22;69411;45.656;11.740;2023-10-13T16:17:00;23.60;67.70
64817;DHT22;69411;45.656;11.740;2023-10-13T16:19:30;23.50;67.90